sensor_id;sensor_type;location;lat;lon;timestamp;pressure;altitude;pressure_sealevel;temperature;humidity
74270;BME280;62754;48.252;11.654;2023-11-21T00:00:13;95621.41;;;6.94;84.92
74270;BME280;62754;48.252;11.654;2023-11-21T00:02:40;95618.06;;;7.05;84.31
74270;BME280;62754;48.252;11.654;2023-11-21T00:05:10;95618.53;;;6.99;85.65
74270;BME280;62754;48.252;11.654;2023-11-21T00:07:36;95615.47;;;6.94;85.31
74270;BME280;62754;48.252;11.654;2023-11-21T00:10:03;95611.16;;;6.83;86.44
74270;BME280;62754;48.252;11.654;2023-11-21T00:12:36;95610.19;;;6.84;86.51
74270;BME280;62754;48.252;11.654;2023-11-21T00:15:02;95613.91;;;6.80;86.56
74270;BME280;62754;48.252;11.654;2023-11-21T00:17:30;95614.63;;;6.82;87.28
74270;BME280;62754;48.252;11.654;2023-11-21T00:19:56;95616.41;;;6.93;87.01
74270;BME280;62754;48.252;11.654;2023-11-21T00:22:22;95622.41;;;6.81;87.91
74270;BME280;62754;48.252;11.654;2023-11-21T00:24:48;95614.03;;;6.79;87.96
74270;BME280;62754;48.252;11.654;2023-11-21T00:27:13;95611.91;;;6.72;88.47
74270;BME280;62754;48.252;11.654;2023-11-21T00:29:40;95604.38;;;6.82;88.74
74270;BME280;62754;48.252;11.654;2023-11-21T00:32:06;95599.94;;;6.73;89.16
74270;BME280;62754;48.252;11.654;2023-11-21T00:34:32;95598.78;;;6.77;88.83
74270;BME280;62754;48.252;11.654;2023-11-21T00:36:58;95597.13;;;6.76;89.11
74270;BME280;62754;48.252;11.654;2023-11-21T00:39:24;95587.94;;;6.74;89.41
74270;BME280;62754;48.252;11.654;2023-11-21T00:41:52;95590.66;;;6.83;89.78
74270;BME280;62754;48.252;11.654;2023-11-21T00:44:18;95587.28;;;6.83;88.96
74270;BME280;62754;48.252;11.654;2023-11-21T00:46:44;95583.34;;;6.90;88.51
74270;BME280;62754;48.252;11.654;2023-11-21T00:49:10;95578.56;;;6.96;88.13
74270;BME280;62754;48.252;11.654;2023-11-21T00:51:36;95577.75;;;6.96;87.43
74270;BME280;62754;48.252;11.654;2023-11-21T00:54:02;95562.97;;;6.88;88.60
74270;BME280;62754;48.252;11.654;2023-11-21T00:56:28;95564.25;;;6.94;87.29
74270;BME280;62754;48.252;11.654;2023-11-21T00:58:54;95563.47;;;7.04;87.01
74270;BME280;62754;48.252;11.654;2023-11-21T01:01:21;95566.13;;;7.03;87.17
74270;BME280;62754;48.252;11.654;2023-11-21T01:03:48;95562.88;;;7.01;86.41
74270;BME280;62754;48.252;11.654;2023-11-21T01:06:15;95562.41;;;7.07;87.10
74270;BME280;62754;48.252;11.654;2023-11-21T01:08:41;95556.34;;;7.08;85.89
74270;BME280;62754;48.252;11.654;2023-11-21T01:11:06;95556.94;;;7.11;87.36
74270;BME280;62754;48.252;11.654;2023-11-21T01:13:40;95564.53;;;7.13;86.49
74270;BME280;62754;48.252;11.654;2023-11-21T01:16:06;95567.91;;;7.13;85.91
74270;BME280;62754;48.252;11.654;2023-11-21T01:18:33;95575.03;;;7.21;85.93
74270;BME280;62754;48.252;11.654;2023-11-21T01:20:58;95573.38;;;7.20;86.19
74270;BME280;62754;48.252;11.654;2023-11-21T01:23:26;95578.97;;;7.14;86.60
74270;BME280;62754;48.252;11.654;2023-11-21T01:25:52;95576.50;;;7.01;87.52
74270;BME280;62754;48.252;11.654;2023-11-21T01:28:18;95577.41;;;7.00;87.90
74270;BME280;62754;48.252;11.654;2023-11-21T01:30:45;95578.47;;;6.98;88.23
74270;BME280;62754;48.252;11.654;2023-11-21T01:33:11;95581.50;;;7.03;87.77
74270;BME280;62754;48.252;11.654;2023-11-21T01:35:37;95568.34;;;7.07;88.02
74270;BME280;62754;48.252;11.654;2023-11-21T01:38:02;95579.44;;;7.19;87.97
74270;BME280;62754;48.252;11.654;2023-11-21T01:40:33;95578.03;;;7.26;87.12
74270;BME280;62754;48.252;11.654;2023-11-21T01:43:00;95584.34;;;7.22;87.89
74270;BME280;62754;48.252;11.654;2023-11-21T01:45:28;95579.09;;;7.24;88.28
74270;BME280;62754;48.252;11.654;2023-11-21T01:47:56;95575.38;;;7.28;88.27
74270;BME280;62754;48.252;11.654;2023-11-21T01:50:24;95584.22;;;7.35;88.45
74270;BME280;62754;48.252;11.654;2023-11-21T01:52:51;95588.53;;;7.34;89.16
74270;BME280;62754;48.252;11.654;2023-11-21T01:55:18;95592.81;;;7.34;89.55
74270;BME280;62754;48.252;11.654;2023-11-21T01:57:45;95592.13;;;7.32;89.76
74270;BME280;62754;48.252;11.654;2023-11-21T02:00:12;95590.84;;;7.26;89.33
74270;BME280;62754;48.252;11.654;2023-11-21T02:02:45;95592.72;;;7.24;89.59
74270;BME280;62754;48.252;11.654;2023-11-21T02:05:12;95590.50;;;7.19;90.37
74270;BME280;62754;48.252;11.654;2023-11-21T02:07:42;95583.88;;;7.17;90.87
74270;BME280;62754;48.252;11.654;2023-11-21T02:10:13;95598.16;;;7.08;91.13
74270;BME280;62754;48.252;11.654;2023-11-21T02:12:41;95601.53;;;7.09;92.18
74270;BME280;62754;48.252;11.654;2023-11-21T02:15:08;95604.78;;;7.00;93.88
74270;BME280;62754;48.252;11.654;2023-11-21T02:17:42;95598.25;;;7.07;92.12
74270;BME280;62754;48.252;11.654;2023-11-21T02:20:19;95601.44;;;7.10;91.99
74270;BME280;62754;48.252;11.654;2023-11-21T02:22:50;95595.38;;;7.11;90.34
74270;BME280;62754;48.252;11.654;2023-11-21T02:25:26;95597.59;;;7.16;90.09
74270;BME280;62754;48.252;11.654;2023-11-21T02:27:56;95596.84;;;7.03;90.19
74270;BME280;62754;48.252;11.654;2023-11-21T02:30:23;95598.25;;;7.07;90.52
74270;BME280;62754;48.252;11.654;2023-11-21T02:32:50;95599.09;;;7.07;91.83
74270;BME280;62754;48.252;11.654;2023-11-21T02:35:19;95587.66;;;7.00;91.37
74270;BME280;62754;48.252;11.654;2023-11-21T02:37:49;95597.81;;;7.02;91.03
74270;BME280;62754;48.252;11.654;2023-11-21T02:40:15;95592.41;;;6.83;91.29
74270;BME280;62754;48.252;11.654;2023-11-21T02:42:48;95592.59;;;6.80;91.48
74270;BME280;62754;48.252;11.654;2023-11-21T02:45:17;95589.91;;;6.70;92.68
74270;BME280;62754;48.252;11.654;2023-11-21T02:47:44;95588.28;;;6.69;92.11
74270;BME280;62754;48.252;11.654;2023-11-21T02:50:10;95580.22;;;6.62;93.25
74270;BME280;62754;48.252;11.654;2023-11-21T02:52:36;95585.84;;;6.67;93.61
74270;BME280;62754;48.252;11.654;2023-11-21T02:55:03;95577.47;;;6.77;93.02
74270;BME280;62754;48.252;11.654;2023-11-21T02:57:29;95576.63;;;6.65;92.90
74270;BME280;62754;48.252;11.654;2023-11-21T02:59:55;95574.41;;;6.60;94.08
74270;BME280;62754;48.252;11.654;2023-11-21T03:02:21;95573.97;;;6.66;94.29
74270;BME280;62754;48.252;11.654;2023-11-21T03:04:47;95577.91;;;6.59;94.46
74270;BME280;62754;48.252;11.654;2023-11-21T03:07:14;95568.50;;;6.60;94.72
74270;BME280;62754;48.252;11.654;2023-11-21T03:09:40;95568.22;;;6.52;94.73
74270;BME280;62754;48.252;11.654;2023-11-21T03:12:06;95574.28;;;6.62;95.75
74270;BME280;62754;48.252;11.654;2023-11-21T03:14:32;95567.19;;;6.54;95.82
74270;BME280;62754;48.252;11.654;2023-11-21T03:16:58;95569.28;;;6.60;96.88
74270;BME280;62754;48.252;11.654;2023-11-21T03:19:24;95568.34;;;6.61;96.12
74270;BME280;62754;48.252;11.654;2023-11-21T03:21:50;95572.81;;;6.70;95.74
74270;BME280;62754;48.252;11.654;2023-11-21T03:24:18;95569.56;;;6.80;96.08
74270;BME280;62754;48.252;11.654;2023-11-21T03:26:45;95564.13;;;6.84;95.01
74270;BME280;62754;48.252;11.654;2023-11-21T03:29:16;95558.41;;;6.81;95.04
74270;BME280;62754;48.252;11.654;2023-11-21T03:31:42;95558.63;;;6.78;95.51
74270;BME280;62754;48.252;11.654;2023-11-21T03:34:14;95571.19;;;6.69;95.57
74270;BME280;62754;48.252;11.654;2023-11-21T03:36:40;95563.97;;;6.63;95.53
74270;BME280;62754;48.252;11.654;2023-11-21T03:39:06;95561.41;;;6.63;95.42
74270;BME280;62754;48.252;11.654;2023-11-21T03:41:32;95559.03;;;6.60;96.17
74270;BME280;62754;48.252;11.654;2023-11-21T03:43:59;95564.13;;;6.49;96.63
74270;BME280;62754;48.252;11.654;2023-11-21T03:46:25;95558.59;;;6.55;96.88
74270;BME280;62754;48.252;11.654;2023-11-21T03:48:51;95555.31;;;6.53;97.34
74270;BME280;62754;48.252;11.654;2023-11-21T03:51:17;95560.00;;;6.59;96.87
74270;BME280;62754;48.252;11.654;2023-11-21T03:53:43;95551.38;;;6.60;95.92
74270;BME280;62754;48.252;11.654;2023-11-21T03:56:09;95556.38;;;6.62;96.08
74270;BME280;62754;48.252;11.654;2023-11-21T03:58:35;95550.22;;;6.64;95.61
74270;BME280;62754;48.252;11.654;2023-11-21T04:01:00;95560.94;;;6.69;96.28
74270;BME280;62754;48.252;11.654;2023-11-21T04:03:26;95565.97;;;6.71;95.93
74270;BME280;62754;48.252;11.654;2023-11-21T04:05:52;95566.31;;;6.78;94.95
74270;BME280;62754;48.252;11.654;2023-11-21T04:08:18;95564.34;;;6.81;95.03
74270;BME280;62754;48.252;11.654;2023-11-21T04:10:44;95563.53;;;6.81;95.37
74270;BME280;62754;48.252;11.654;2023-11-21T04:13:10;95554.34;;;6.78;95.84
74270;BME280;62754;48.252;11.654;2023-11-21T04:15:35;95550.84;;;6.79;96.00
74270;BME280;62754;48.252;11.654;2023-11-21T04:18:02;95553.50;;;6.78;95.78
74270;BME280;62754;48.252;11.654;2023-11-21T04:20:28;95552.81;;;6.76;96.25
74270;BME280;62754;48.252;11.654;2023-11-21T04:22:54;95553.81;;;6.62;96.48
74270;BME280;62754;48.252;11.654;2023-11-21T04:25:19;95550.91;;;6.55;96.90
74270;BME280;62754;48.252;11.654;2023-11-21T04:27:46;95551.34;;;6.49;97.43
74270;BME280;62754;48.252;11.654;2023-11-21T04:30:12;95554.72;;;6.50;96.86
74270;BME280;62754;48.252;11.654;2023-11-21T04:32:38;95567.03;;;6.45;97.02
74270;BME280;62754;48.252;11.654;2023-11-21T04:35:05;95567.13;;;6.43;97.11
74270;BME280;62754;48.252;11.654;2023-11-21T04:37:30;95572.03;;;6.46;96.16
74270;BME280;62754;48.252;11.654;2023-11-21T04:39:56;95569.03;;;6.52;95.35
74270;BME280;62754;48.252;11.654;2023-11-21T04:42:22;95564.72;;;6.53;95.43
74270;BME280;62754;48.252;11.654;2023-11-21T04:44:49;95568.81;;;6.55;95.86
74270;BME280;62754;48.252;11.654;2023-11-21T04:47:15;95570.06;;;6.50;95.50
74270;BME280;62754;48.252;11.654;2023-11-21T04:49:45;95564.84;;;6.51;95.75
74270;BME280;62754;48.252;11.654;2023-11-21T04:52:14;95567.63;;;6.48;96.20
74270;BME280;62754;48.252;11.654;2023-11-21T04:54:40;95570.88;;;6.50;95.89
74270;BME280;62754;48.252;11.654;2023-11-21T04:57:06;95575.19;;;6.50;95.12
74270;BME280;62754;48.252;11.654;2023-11-21T04:59:33;95569.47;;;6.46;95.98
74270;BME280;62754;48.252;11.654;2023-11-21T05:01:59;95576.66;;;6.41;96.00
74270;BME280;62754;48.252;11.654;2023-11-21T05:04:25;95570.84;;;6.39;96.49
74270;BME280;62754;48.252;11.654;2023-11-21T05:06:52;95581.66;;;6.43;96.11
74270;BME280;62754;48.252;11.654;2023-11-21T05:09:18;95575.72;;;6.42;95.52
74270;BME280;62754;48.252;11.654;2023-11-21T05:11:43;95579.00;;;6.44;94.87
74270;BME280;62754;48.252;11.654;2023-11-21T05:14:09;95581.66;;;6.43;96.20
74270;BME280;62754;48.252;11.654;2023-11-21T05:16:35;95585.06;;;6.43;95.78
74270;BME280;62754;48.252;11.654;2023-11-21T05:19:02;95583.41;;;6.42;96.14
74270;BME280;62754;48.252;11.654;2023-11-21T05:21:29;95585.06;;;6.43;94.90
74270;BME280;62754;48.252;11.654;2023-11-21T05:23:57;95591.34;;;6.50;95.15
74270;BME280;62754;48.252;11.654;2023-11-21T05:26:23;95579.47;;;6.49;94.89
74270;BME280;62754;48.252;11.654;2023-11-21T05:28:48;95581.97;;;6.62;95.01
74270;BME280;62754;48.252;11.654;2023-11-21T05:31:15;95585.53;;;6.48;95.14
74270;BME280;62754;48.252;11.654;2023-11-21T05:33:41;95581.44;;;6.46;94.48
74270;BME280;62754;48.252;11.654;2023-11-21T05:36:07;95585.75;;;6.45;94.28
74270;BME280;62754;48.252;11.654;2023-11-21T05:38:35;95587.13;;;6.38;94.67
74270;BME280;62754;48.252;11.654;2023-11-21T05:41:02;95585.75;;;6.45;95.44
74270;BME280;62754;48.252;11.654;2023-11-21T05:43:29;95583.78;;;6.49;94.51
74270;BME280;62754;48.252;11.654;2023-11-21T05:45:56;95594.09;;;6.60;94.20
74270;BME280;62754;48.252;11.654;2023-11-21T05:48:22;95603.66;;;6.45;94.45
74270;BME280;62754;48.252;11.654;2023-11-21T05:50:48;95599.50;;;6.44;95.09
74270;BME280;62754;48.252;11.654;2023-11-21T05:53:15;95598.53;;;6.45;95.46
74270;BME280;62754;48.252;11.654;2023-11-21T05:55:41;95595.06;;;6.46;95.44
74270;BME280;62754;48.252;11.654;2023-11-21T05:58:07;95593.00;;;6.51;94.44
74270;BME280;62754;48.252;11.654;2023-11-21T06:00:34;95588.31;;;6.45;94.38
74270;BME280;62754;48.252;11.654;2023-11-21T06:03:01;95589.91;;;6.35;94.47
74270;BME280;62754;48.252;11.654;2023-11-21T06:05:27;95593.81;;;6.28;94.51
74270;BME280;62754;48.252;11.654;2023-11-21T06:07:54;95594.75;;;6.27;94.59
74270;BME280;62754;48.252;11.654;2023-11-21T06:10:22;95603.47;;;6.25;93.44
74270;BME280;62754;48.252;11.654;2023-11-21T06:12:49;95595.66;;;6.26;93.84
74270;BME280;62754;48.252;11.654;2023-11-21T06:15:15;95605.19;;;6.24;93.43
74270;BME280;62754;48.252;11.654;2023-11-21T06:17:44;95603.19;;;6.16;93.99
74270;BME280;62754;48.252;11.654;2023-11-21T06:20:15;95605.97;;;6.13;94.58
74270;BME280;62754;48.252;11.654;2023-11-21T06:22:44;95610.56;;;6.08;94.49
74270;BME280;62754;48.252;11.654;2023-11-21T06:25:11;95608.09;;;6.07;94.05
74270;BME280;62754;48.252;11.654;2023-11-21T06:30:05;95616.63;;;5.95;94.37
74270;BME280;62754;48.252;11.654;2023-11-21T06:32:32;95623.97;;;5.99;94.45
74270;BME280;62754;48.252;11.654;2023-11-21T06:34:58;95624.69;;;6.14;94.14
74270;BME280;62754;48.252;11.654;2023-11-21T06:37:26;95626.53;;;5.99;94.37
74270;BME280;62754;48.252;11.654;2023-11-21T06:39:52;95622.75;;;6.05;94.30
74270;BME280;62754;48.252;11.654;2023-11-21T06:42:18;95629.03;;;6.25;93.83
74270;BME280;62754;48.252;11.654;2023-11-21T06:44:45;95635.50;;;6.17;93.17
74270;BME280;62754;48.252;11.654;2023-11-21T06:47:11;95638.72;;;6.32;92.89
74270;BME280;62754;48.252;11.654;2023-11-21T06:49:37;95635.72;;;6.38;92.26
74270;BME280;62754;48.252;11.654;2023-11-21T06:52:04;95638.41;;;6.37;92.19
74270;BME280;62754;48.252;11.654;2023-11-21T06:54:33;95637.59;;;6.36;92.20
74270;BME280;62754;48.252;11.654;2023-11-21T06:56:59;95648.66;;;6.37;91.70
74270;BME280;62754;48.252;11.654;2023-11-21T06:59:24;95648.66;;;6.37;91.40
74270;BME280;62754;48.252;11.654;2023-11-21T07:01:50;95654.34;;;6.40;92.26
74270;BME280;62754;48.252;11.654;2023-11-21T07:04:16;95654.03;;;6.45;90.74
74270;BME280;62754;48.252;11.654;2023-11-21T07:06:43;95653.41;;;6.41;90.58
74270;BME280;62754;48.252;11.654;2023-11-21T07:09:09;95660.41;;;6.39;91.14
74270;BME280;62754;48.252;11.654;2023-11-21T07:11:37;95645.41;;;6.46;91.15
74270;BME280;62754;48.252;11.654;2023-11-21T07:14:03;95651.94;;;6.50;90.36
74270;BME280;62754;48.252;11.654;2023-11-21T07:16:35;95657.56;;;6.55;90.03
74270;BME280;62754;48.252;11.654;2023-11-21T07:19:05;95657.78;;;6.52;90.37
74270;BME280;62754;48.252;11.654;2023-11-21T07:21:34;95661.88;;;6.54;89.37
74270;BME280;62754;48.252;11.654;2023-11-21T07:24:00;95669.31;;;6.57;89.63
74270;BME280;62754;48.252;11.654;2023-11-21T07:26:27;95667.91;;;6.53;89.74
74270;BME280;62754;48.252;11.654;2023-11-21T07:28:53;95671.25;;;6.66;88.96
74270;BME280;62754;48.252;11.654;2023-11-21T07:31:20;95678.16;;;6.77;88.00
74270;BME280;62754;48.252;11.654;2023-11-21T07:33:49;95674.13;;;6.86;87.12
74270;BME280;62754;48.252;11.654;2023-11-21T07:36:16;95674.47;;;6.92;86.85
74270;BME280;62754;48.252;11.654;2023-11-21T07:38:49;95679.44;;;7.06;87.74
74270;BME280;62754;48.252;11.654;2023-11-21T07:41:17;95679.53;;;7.05;86.44
74270;BME280;62754;48.252;11.654;2023-11-21T07:43:46;95681.50;;;7.01;86.96
74270;BME280;62754;48.252;11.654;2023-11-21T07:46:13;95680.78;;;6.99;87.43
74270;BME280;62754;48.252;11.654;2023-11-21T07:48:40;95691.53;;;7.04;86.09
74270;BME280;62754;48.252;11.654;2023-11-21T07:51:07;95686.59;;;7.25;85.94
74270;BME280;62754;48.252;11.654;2023-11-21T07:53:34;95693.16;;;7.51;85.26
74270;BME280;62754;48.252;11.654;2023-11-21T07:56:04;95688.72;;;7.42;83.28
74270;BME280;62754;48.252;11.654;2023-11-21T07:58:30;95688.72;;;7.53;84.11
74270;BME280;62754;48.252;11.654;2023-11-21T08:00:58;95684.56;;;7.52;83.11
74270;BME280;62754;48.252;11.654;2023-11-21T08:03:24;95680.34;;;7.51;83.57
74270;BME280;62754;48.252;11.654;2023-11-21T08:05:52;95689.09;;;7.60;83.14
74270;BME280;62754;48.252;11.654;2023-11-21T08:08:17;95683.25;;;7.47;83.72
74270;BME280;62754;48.252;11.654;2023-11-21T08:10:44;95678.72;;;7.73;82.89
74270;BME280;62754;48.252;11.654;2023-11-21T08:13:13;95678.53;;;7.64;83.06
74270;BME280;62754;48.252;11.654;2023-11-21T08:15:41;95683.16;;;7.59;81.94
74270;BME280;62754;48.252;11.654;2023-11-21T08:18:11;95684.09;;;7.81;81.23
74270;BME280;62754;48.252;11.654;2023-11-21T08:20:38;95679.78;;;7.81;80.23
74270;BME280;62754;48.252;11.654;2023-11-21T08:23:05;95689.13;;;7.71;80.94
74270;BME280;62754;48.252;11.654;2023-11-21T08:25:34;95680.38;;;7.74;80.43
74270;BME280;62754;48.252;11.654;2023-11-21T08:28:00;95678.03;;;7.82;80.13
74270;BME280;62754;48.252;11.654;2023-11-21T08:30:27;95678.53;;;7.64;80.68
74270;BME280;62754;48.252;11.654;2023-11-21T08:32:55;95680.00;;;7.56;81.30
74270;BME280;62754;48.252;11.654;2023-11-21T08:35:26;95673.72;;;7.49;81.32
74270;BME280;62754;48.252;11.654;2023-11-21T08:37:52;95678.34;;;7.33;82.34
74270;BME280;62754;48.252;11.654;2023-11-21T08:40:19;95680.78;;;7.34;82.06
74270;BME280;62754;48.252;11.654;2023-11-21T08:42:46;95681.84;;;7.43;81.85
74270;BME280;62754;48.252;11.654;2023-11-21T08:45:12;95682.31;;;7.48;81.50
74270;BME280;62754;48.252;11.654;2023-11-21T08:47:38;95683.03;;;7.61;82.60
74270;BME280;62754;48.252;11.654;2023-11-21T08:50:05;95684.56;;;7.63;82.38
74270;BME280;62754;48.252;11.654;2023-11-21T08:52:35;95687.03;;;7.76;80.36
74270;BME280;62754;48.252;11.654;2023-11-21T08:55:02;95692.38;;;7.73;80.58
74270;BME280;62754;48.252;11.654;2023-11-21T08:57:34;95689.03;;;7.84;81.00
74270;BME280;62754;48.252;11.654;2023-11-21T09:00:01;95694.16;;;7.95;80.64
74270;BME280;62754;48.252;11.654;2023-11-21T09:02:27;95693.56;;;8.02;79.99
74270;BME280;62754;48.252;11.654;2023-11-21T09:04:53;95697.88;;;8.02;79.87
74270;BME280;62754;48.252;11.654;2023-11-21T09:07:19;95698.22;;;7.97;79.77
74270;BME280;62754;48.252;11.654;2023-11-21T09:09:48;95701.13;;;8.04;80.06
74270;BME280;62754;48.252;11.654;2023-11-21T09:12:15;95699.72;;;8.11;79.53
74270;BME280;62754;48.252;11.654;2023-11-21T09:14:41;95700.88;;;7.96;80.72
74270;BME280;62754;48.252;11.654;2023-11-21T09:17:08;95703.47;;;7.96;80.08
74270;BME280;62754;48.252;11.654;2023-11-21T09:19:37;95713.03;;;8.16;79.38
74270;BME280;62754;48.252;11.654;2023-11-21T09:22:04;95701.44;;;8.66;77.45
74270;BME280;62754;48.252;11.654;2023-11-21T09:24:33;95709.31;;;8.85;76.64
74270;BME280;62754;48.252;11.654;2023-11-21T09:26:59;95699.56;;;9.00;76.46
74270;BME280;62754;48.252;11.654;2023-11-21T09:29:28;95707.09;;;9.44;74.16
74270;BME280;62754;48.252;11.654;2023-11-21T09:31:54;95708.41;;;9.80;72.79
74270;BME280;62754;48.252;11.654;2023-11-21T09:34:22;95713.28;;;9.83;71.87
74270;BME280;62754;48.252;11.654;2023-11-21T09:36:48;95713.94;;;10.06;72.39
74270;BME280;62754;48.252;11.654;2023-11-21T09:39:14;95716.03;;;10.52;70.86
74270;BME280;62754;48.252;11.654;2023-11-21T09:41:46;95715.41;;;10.69;70.33
74270;BME280;62754;48.252;11.654;2023-11-21T09:44:18;95718.00;;;10.39;71.00
74270;BME280;62754;48.252;11.654;2023-11-21T09:46:48;95723.56;;;10.34;71.93
74270;BME280;62754;48.252;11.654;2023-11-21T09:49:22;95731.59;;;9.90;73.57
74270;BME280;62754;48.252;11.654;2023-11-21T09:51:54;95713.28;;;9.63;73.74
74270;BME280;62754;48.252;11.654;2023-11-21T09:54:21;95718.63;;;9.29;75.26
74270;BME280;62754;48.252;11.654;2023-11-21T09:56:48;95721.75;;;9.33;74.71
74270;BME280;62754;48.252;11.654;2023-11-21T09:59:15;95718.88;;;9.26;75.11
74270;BME280;62754;48.252;11.654;2023-11-21T10:01:42;95720.22;;;9.09;75.81
74270;BME280;62754;48.252;11.654;2023-11-21T10:04:09;95715.81;;;9.00;76.99
74270;BME280;62754;48.252;11.654;2023-11-21T10:06:41;95718.44;;;8.78;77.73
74270;BME280;62754;48.252;11.654;2023-11-21T10:09:10;95719.16;;;8.80;78.44
74270;BME280;62754;48.252;11.654;2023-11-21T10:11:40;95720.59;;;9.05;77.71
74270;BME280;62754;48.252;11.654;2023-11-21T10:14:08;95720.63;;;9.26;76.89
74270;BME280;62754;48.252;11.654;2023-11-21T10:16:38;95719.34;;;9.20;76.75
74270;BME280;62754;48.252;11.654;2023-11-21T10:19:04;95722.84;;;9.30;75.28
74270;BME280;62754;48.252;11.654;2023-11-21T10:21:33;95715.81;;;9.53;75.84
74270;BME280;62754;48.252;11.654;2023-11-21T10:23:59;95719.94;;;9.86;74.77
74270;BME280;62754;48.252;11.654;2023-11-21T10:26:26;95718.91;;;9.77;74.70
74270;BME280;62754;48.252;11.654;2023-11-21T10:29:00;95718.88;;;9.68;74.97
74270;BME280;62754;48.252;11.654;2023-11-21T10:31:29;95721.94;;;9.62;75.02
74270;BME280;62754;48.252;11.654;2023-11-21T10:34:14;95714.09;;;9.42;74.86
74270;BME280;62754;48.252;11.654;2023-11-21T10:36:40;95725.25;;;9.11;76.51
74270;BME280;62754;48.252;11.654;2023-11-21T10:39:06;95730.53;;;9.30;77.73
74270;BME280;62754;48.252;11.654;2023-11-21T10:41:32;95725.56;;;9.38;77.06
74270;BME280;62754;48.252;11.654;2023-11-21T10:44:00;95719.06;;;9.34;75.33
74270;BME280;62754;48.252;11.654;2023-11-21T10:46:29;95728.13;;;9.38;76.04
74270;BME280;62754;48.252;11.654;2023-11-21T10:48:55;95721.19;;;9.50;76.78
74270;BME280;62754;48.252;11.654;2023-11-21T10:51:22;95727.44;;;9.98;75.88
74270;BME280;62754;48.252;11.654;2023-11-21T10:53:51;95715.31;;;10.10;76.03
74270;BME280;62754;48.252;11.654;2023-11-21T10:56:18;95717.28;;;10.27;75.53
74270;BME280;62754;48.252;11.654;2023-11-21T10:58:48;95721.81;;;10.35;73.51
74270;BME280;62754;48.252;11.654;2023-11-21T11:01:16;95720.59;;;10.39;75.27
74270;BME280;62754;48.252;11.654;2023-11-21T11:03:44;95708.97;;;10.14;74.20
74270;BME280;62754;48.252;11.654;2023-11-21T11:06:10;95714.38;;;10.41;72.77
74270;BME280;62754;48.252;11.654;2023-11-21T11:08:38;95715.09;;;10.53;72.70
74270;BME280;62754;48.252;11.654;2023-11-21T11:11:05;95710.47;;;10.17;72.38
74270;BME280;62754;48.252;11.654;2023-11-21T11:13:31;95708.25;;;10.33;73.54
74270;BME280;62754;48.252;11.654;2023-11-21T11:16:01;95706.09;;;10.08;72.58
74270;BME280;62754;48.252;11.654;2023-11-21T11:18:30;95707.16;;;10.05;73.32
74270;BME280;62754;48.252;11.654;2023-11-21T11:21:33;95706.66;;;10.11;72.82
74270;BME280;62754;48.252;11.654;2023-11-21T11:26:50;95701.41;;;9.92;74.43
74270;BME280;62754;48.252;11.654;2023-11-21T11:32:07;95702.91;;;9.94;76.11
74270;BME280;62754;48.252;11.654;2023-11-21T11:34:46;95705.66;;;10.02;75.24
74270;BME280;62754;48.252;11.654;2023-11-21T11:37:15;95701.19;;;10.04;74.84
74270;BME280;62754;48.252;11.654;2023-11-21T11:39:41;95706.88;;;10.08;75.24
74270;BME280;62754;48.252;11.654;2023-11-21T11:42:13;95706.03;;;10.19;74.61
74270;BME280;62754;48.252;11.654;2023-11-21T11:47:32;95702.72;;;10.47;73.00
74270;BME280;62754;48.252;11.654;2023-11-21T11:50:11;95700.22;;;10.26;73.48
74270;BME280;62754;48.252;11.654;2023-11-21T11:52:46;95693.22;;;10.47;74.60
74270;BME280;62754;48.252;11.654;2023-11-21T11:55:13;95698.34;;;10.28;73.35
74270;BME280;62754;48.252;11.654;2023-11-21T11:57:42;95695.91;;;10.27;74.19
74270;BME280;62754;48.252;11.654;2023-11-21T12:02:48;95693.72;;;10.32;72.96
74270;BME280;62754;48.252;11.654;2023-11-21T12:05:16;95703.13;;;10.42;73.88
74270;BME280;62754;48.252;11.654;2023-11-21T12:07:50;95700.09;;;10.28;74.49
74270;BME280;62754;48.252;11.654;2023-11-21T12:10:21;95706.22;;;10.27;73.61
74270;BME280;62754;48.252;11.654;2023-11-21T12:12:53;95701.06;;;10.27;73.16
74270;BME280;62754;48.252;11.654;2023-11-21T12:15:19;95704.75;;;10.13;73.34
74270;BME280;62754;48.252;11.654;2023-11-21T12:17:47;95702.72;;;10.07;73.86
74270;BME280;62754;48.252;11.654;2023-11-21T12:20:15;95699.59;;;10.13;73.77
74270;BME280;62754;48.252;11.654;2023-11-21T12:22:53;95703.47;;;10.19;73.81
74270;BME280;62754;48.252;11.654;2023-11-21T12:25:20;95698.44;;;10.17;75.06
74270;BME280;62754;48.252;11.654;2023-11-21T12:27:47;95707.25;;;10.24;74.64
74270;BME280;62754;48.252;11.654;2023-11-21T12:30:15;95707.63;;;10.50;75.07
74270;BME280;62754;48.252;11.654;2023-11-21T12:32:51;95702.91;;;10.74;73.18
74270;BME280;62754;48.252;11.654;2023-11-21T12:35:21;95698.19;;;10.79;73.97
74270;BME280;62754;48.252;11.654;2023-11-21T12:37:48;95702.22;;;10.53;74.47
74270;BME280;62754;48.252;11.654;2023-11-21T12:40:16;95702.44;;;10.31;76.50
74270;BME280;62754;48.252;11.654;2023-11-21T12:42:46;95696.09;;;10.14;75.71
74270;BME280;62754;48.252;11.654;2023-11-21T12:48:05;95705.75;;;9.71;79.26
74270;BME280;62754;48.252;11.654;2023-11-21T12:50:37;95705.50;;;9.74;79.94
74270;BME280;62754;48.252;11.654;2023-11-21T12:53:10;95710.47;;;9.66;80.68
74270;BME280;62754;48.252;11.654;2023-11-21T12:55:43;95709.78;;;9.64;80.43
74270;BME280;62754;48.252;11.654;2023-11-21T12:58:15;95702.13;;;9.52;80.00
74270;BME280;62754;48.252;11.654;2023-11-21T13:00:45;95706.53;;;9.41;78.79
74270;BME280;62754;48.252;11.654;2023-11-21T13:03:13;95706.84;;;9.47;80.18
74270;BME280;62754;48.252;11.654;2023-11-21T13:05:43;95715.28;;;9.38;80.04
74270;BME280;62754;48.252;11.654;2023-11-21T13:08:16;95724.34;;;9.53;79.20
74270;BME280;62754;48.252;11.654;2023-11-21T13:10:46;95714.56;;;9.68;80.17
74270;BME280;62754;48.252;11.654;2023-11-21T13:13:14;95713.03;;;9.86;79.44
74270;BME280;62754;48.252;11.654;2023-11-21T13:15:54;95725.53;;;9.70;80.75
74270;BME280;62754;48.252;11.654;2023-11-21T13:18:26;95720.81;;;9.75;82.01